Time;durP1;ratioP1;P1;durP2;ratioP2;P2;SDS_P1;SDS_P2;PMS_P1;PMS_P2;Temp;Humidity;BMP_temperature;BMP_pressure;BME280_temperature;BME280_humidity;BME280_pressure;Samples;Min_cycle;Max_cycle;Signal;HPM_P1;HPM_P2
2023/04/28 00:01:07;;;;;;;4.23;3.20;;;;;;;;;;5018011;28;20191;-74
2023/04/28 00:03:34;;;;;;;4.37;3.10;;;;;;;;;;5031778;28;20228;-74
2023/04/28 00:06:00;;;;;;;3.33;2.70;;;;;;;;;;5032089;28;20198;-74
2023/04/28 00:08:26;;;;;;;3.97;2.67;;;;;;;;;;5031980;28;20181;-74
2023/04/28 00:10:52;;;;;;;4.30;3.00;;;;;;;;;;5032205;28;20179;-74
2023/04/28 00:13:18;;;;;;;3.87;2.67;;;;;;;;;;5031739;28;20183;-74
2023/04/28 00:15:44;;;;;;;4.17;3.10;;;;;;;;;;5026297;28;20210;-74
2023/04/28 00:18:10;;;;;;;4.37;2.73;;;;;;;;;;5031872;28;20210;-74
2023/04/28 00:20:37;;;;;;;4.17;2.97;;;;;;;;;;5031801;28;20171;-74
2023/04/28 00:23:03;;;;;;;3.07;2.70;;;;;;;;;;5031531;28;20174;-74
2023/04/28 00:25:29;;;;;;;3.83;2.70;;;;;;;;;;5031812;28;20222;-74
2023/04/28 00:27:56;;;;;;;5.10;3.13;;;;;;;;;;5032063;28;20186;-74
2023/04/28 00:30:24;;;;;;;8.50;4.23;;;;;;;;;;5029386;28;20183;-74
2023/04/28 00:32:50;;;;;;;8.20;4.37;;;;;;;;;;5029856;28;20193;-74
2023/04/28 00:35:16;;;;;;;5.93;3.90;;;;;;;;;;5031718;28;20221;-74
2023/04/28 00:37:42;;;;;;;3.63;3.30;;;;;;;;;;5031679;28;20253;-74
2023/04/28 00:40:09;;;;;;;4.47;3.70;;;;;;;;;;5030373;28;20252;-74
2023/04/28 00:42:36;;;;;;;4.37;2.83;;;;;;;;;;5046142;28;20185;-74
2023/04/28 00:45:05;;;;;;;3.77;3.10;;;;;;;;;;5046462;28;20186;-74
2023/04/28 00:47:34;;;;;;;5.30;3.30;;;;;;;;;;5031603;28;20179;-74
2023/04/28 00:50:01;;;;;;;5.67;3.77;;;;;;;;;;5030181;28;20938;-74
2023/04/28 00:52:27;;;;;;;5.40;3.90;;;;;;;;;;5013843;28;20189;-74
2023/04/28 00:54:55;;;;;;;5.03;4.00;;;;;;;;;;5031248;28;20191;-74
2023/04/28 00:57:22;;;;;;;5.47;3.80;;;;;;;;;;5030073;28;20225;-74
2023/04/28 00:59:48;;;;;;;4.60;3.47;;;;;;;;;;5030899;28;20626;-74
2023/04/28 01:02:17;;;;;;;5.40;3.63;;;;;;;;;;5030127;28;20179;-74
2023/04/28 01:04:46;;;;;;;4.73;3.67;;;;;;;;;;5029624;28;20254;-74
2023/04/28 01:07:14;;;;;;;9.90;5.93;;;;;;;;;;5025194;28;20333;-74
2023/04/28 01:09:40;;;;;;;7.07;4.60;;;;;;;;;;5030726;28;20651;-74
2023/04/28 01:12:07;;;;;;;9.17;4.40;;;;;;;;;;5023359;28;20186;-74
2023/04/28 01:14:41;;;;;;;5.97;4.33;;;;;;;;;;5028071;28;20187;-74
2023/04/28 01:17:08;;;;;;;8.27;4.33;;;;;;;;;;5033108;28;20213;-74
2023/04/28 01:19:34;;;;;;;8.40;5.40;;;;;;;;;;5028936;28;20202;-74
2023/04/28 01:22:01;;;;;;;8.00;5.17;;;;;;;;;;5029399;28;20724;-74
2023/04/28 01:24:27;;;;;;;9.60;4.73;;;;;;;;;;5028433;28;20182;-74
2023/04/28 01:26:56;;;;;;;6.80;4.50;;;;;;;;;;5029436;28;20281;-74
2023/04/28 01:29:22;;;;;;;4.23;3.57;;;;;;;;;;5013435;28;20175;-74
2023/04/28 01:31:48;;;;;;;4.10;3.60;;;;;;;;;;5029501;28;20237;-74
2023/04/28 01:34:16;;;;;;;4.00;3.37;;;;;;;;;;5021574;28;20187;-74
2023/04/28 01:36:42;;;;;;;3.47;3.17;;;;;;;;;;5009749;28;20210;-74
2023/04/28 01:39:10;;;;;;;5.23;3.20;;;;;;;;;;5001648;28;20191;-74
2023/04/28 01:41:36;;;;;;;4.17;3.20;;;;;;;;;;5025266;28;20212;-74
2023/04/28 01:44:05;;;;;;;4.33;3.13;;;;;;;;;;5029172;28;20174;-74
2023/04/28 01:46:31;;;;;;;6.33;3.90;;;;;;;;;;5037039;28;20235;-74
2023/04/28 01:48:57;;;;;;;4.27;3.60;;;;;;;;;;5050318;28;20182;-74
2023/04/28 01:51:23;;;;;;;5.37;3.90;;;;;;;;;;5050512;28;20170;-74
2023/04/28 01:53:50;;;;;;;7.00;4.33;;;;;;;;;;5032809;28;20226;-74
2023/04/28 01:56:16;;;;;;;5.57;4.37;;;;;;;;;;5022350;28;20280;-73
2023/04/28 01:58:43;;;;;;;4.77;4.20;;;;;;;;;;5022816;28;20190;-74
2023/04/28 02:01:09;;;;;;;4.67;4.17;;;;;;;;;;5021373;28;20256;-74
2023/04/28 02:03:35;;;;;;;6.00;4.20;;;;;;;;;;5027520;28;20300;-74
2023/04/28 02:06:03;;;;;;;5.93;5.17;;;;;;;;;;5029060;28;20752;-74
2023/04/28 02:08:30;;;;;;;6.07;5.37;;;;;;;;;;5012961;28;20179;-74
2023/04/28 02:10:57;;;;;;;5.90;5.30;;;;;;;;;;5029227;28;20178;-74
2023/04/28 02:13:23;;;;;;;6.13;4.50;;;;;;;;;;5026300;28;20278;-74
2023/04/28 02:15:49;;;;;;;5.33;4.63;;;;;;;;;;5028903;28;20666;-74
2023/04/28 02:18:15;;;;;;;5.37;4.63;;;;;;;;;;5013723;28;20216;-74
2023/04/28 02:20:41;;;;;;;4.93;4.13;;;;;;;;;;5030503;28;20197;-74
2023/04/28 02:23:08;;;;;;;5.10;3.90;;;;;;;;;;5029602;28;20258;-74
2023/04/28 02:25:34;;;;;;;5.73;4.00;;;;;;;;;;5024954;28;20208;-74
2023/04/28 02:28:01;;;;;;;6.23;4.10;;;;;;;;;;5029140;28;20185;-74
2023/04/28 02:30:27;;;;;;;5.93;4.10;;;;;;;;;;5026101;28;20233;-74
2023/04/28 02:32:55;;;;;;;5.43;4.40;;;;;;;;;;5031342;28;20213;-74
2023/04/28 02:35:21;;;;;;;5.83;4.40;;;;;;;;;;5027567;28;20190;-74
2023/04/28 02:37:47;;;;;;;6.87;4.90;;;;;;;;;;5013910;28;20627;-74
2023/04/28 02:40:13;;;;;;;5.10;4.57;;;;;;;;;;5017353;28;20269;-74
2023/04/28 02:42:39;;;;;;;7.47;5.13;;;;;;;;;;5025821;28;20175;-74
2023/04/28 02:45:07;;;;;;;5.87;4.83;;;;;;;;;;5032090;28;20195;-74
2023/04/28 02:47:33;;;;;;;6.87;4.60;;;;;;;;;;5013725;28;20283;-74
2023/04/28 02:50:00;;;;;;;6.63;5.70;;;;;;;;;;5029114;28;20278;-74
2023/04/28 02:52:26;;;;;;;6.97;5.53;;;;;;;;;;5042702;28;20198;-74
2023/04/28 02:54:56;;;;;;;7.80;5.30;;;;;;;;;;5032032;28;20270;-74
2023/04/28 02:57:22;;;;;;;7.63;6.33;;;;;;;;;;5018712;28;20218;-74
2023/04/28 02:59:48;;;;;;;8.43;7.00;;;;;;;;;;5044043;28;20532;-74
2023/04/28 03:02:14;;;;;;;7.07;6.03;;;;;;;;;;5032612;28;20186;-74
2023/04/28 03:04:40;;;;;;;6.20;5.60;;;;;;;;;;5030643;28;20182;-74
2023/04/28 03:07:07;;;;;;;7.27;5.73;;;;;;;;;;5014013;28;20222;-74
2023/04/28 03:09:33;;;;;;;6.20;5.33;;;;;;;;;;5027817;28;20201;-74
2023/04/28 03:12:01;;;;;;;7.57;5.07;;;;;;;;;;5031237;28;20179;-74
2023/04/28 03:14:29;;;;;;;13.90;7.80;;;;;;;;;;5032019;28;20182;-74
2023/04/28 03:16:56;;;;;;;6.93;5.63;;;;;;;;;;5031856;28;20674;-74
2023/04/28 03:19:23;;;;;;;9.80;6.03;;;;;;;;;;5031888;28;20261;-73
2023/04/28 03:21:49;;;;;;;6.63;4.97;;;;;;;;;;5032442;28;20189;-74
2023/04/28 03:24:15;;;;;;;6.73;5.30;;;;;;;;;;5027091;28;20192;-74
2023/04/28 03:26:41;;;;;;;6.13;5.53;;;;;;;;;;5022853;28;20238;-74
2023/04/28 03:29:08;;;;;;;7.53;5.60;;;;;;;;;;5027202;28;20218;-74
2023/04/28 03:31:34;;;;;;;6.27;5.00;;;;;;;;;;5030639;28;20194;-74
2023/04/28 03:34:02;;;;;;;6.40;4.73;;;;;;;;;;5044279;28;20183;-74
2023/04/28 03:36:28;;;;;;;6.17;5.07;;;;;;;;;;5023454;28;20206;-74
2023/04/28 03:38:57;;;;;;;5.50;4.70;;;;;;;;;;5014676;28;20650;-74
2023/04/28 03:41:23;;;;;;;4.60;4.20;;;;;;;;;;5022004;28;20183;-74
2023/04/28 03:44:22;;;;;;;5.93;5.00;;;;;;;;;;5029424;28;20514;-74
2023/04/28 03:46:49;;;;;;;5.90;5.10;;;;;;;;;;5013314;28;20245;-74
2023/04/28 03:49:15;;;;;;;5.57;5.00;;;;;;;;;;5027984;28;20187;-74
2023/04/28 03:51:41;;;;;;;6.17;5.20;;;;;;;;;;5027573;28;20190;-74
2023/04/28 03:54:08;;;;;;;9.10;5.70;;;;;;;;;;5030293;28;20209;-74
2023/04/28 03:56:35;;;;;;;5.70;5.10;;;;;;;;;;5026799;28;20210;-74
2023/04/28 03:59:02;;;;;;;6.50;5.50;;;;;;;;;;5011299;28;20250;-74
2023/04/28 04:01:28;;;;;;;7.73;5.70;;;;;;;;;;5020323;28;20179;-74
2023/04/28 04:03:55;;;;;;;8.53;5.13;;;;;;;;;;5030494;28;20181;-74
2023/04/28 04:06:21;;;;;;;6.80;5.40;;;;;;;;;;5030969;28;20608;-74
2023/04/28 04:08:48;;;;;;;6.77;5.63;;;;;;;;;;5030763;28;20654;-74
2023/04/28 04:11:15;;;;;;;7.13;5.53;;;;;;;;;;5029410;28;20224;-74
2023/04/28 04:13:41;;;;;;;5.67;5.10;;;;;;;;;;5018780;28;20178;-74
2023/04/28 04:16:10;;;;;;;6.37;4.80;;;;;;;;;;5030774;28;20218;-74
2023/04/28 04:18:36;;;;;;;5.50;4.87;;;;;;;;;;5031773;28;20595;-74
2023/04/28 04:21:14;;;;;;;6.97;5.80;;;;;;;;;;5030801;28;20182;-74
2023/04/28 04:23:40;;;;;;;8.07;5.57;;;;;;;;;;5030029;28;20182;-74
2023/04/28 04:26:07;;;;;;;6.93;5.83;;;;;;;;;;5029258;28;20229;-74
2023/04/28 04:28:33;;;;;;;9.47;6.70;;;;;;;;;;5031645;28;20285;-74
2023/04/28 04:30:59;;;;;;;7.97;6.23;;;;;;;;;;5014073;28;20200;-74
2023/04/28 04:33:25;;;;;;;9.37;6.57;;;;;;;;;;5026287;28;20191;-74
2023/04/28 04:35:51;;;;;;;7.33;6.63;;;;;;;;;;5012128;28;20736;-74
2023/04/28 04:38:18;;;;;;;7.57;6.20;;;;;;;;;;5031982;28;20212;-74
2023/04/28 04:40:44;;;;;;;7.57;6.37;;;;;;;;;;5024156;28;20187;-74
2023/04/28 04:43:10;;;;;;;6.90;6.20;;;;;;;;;;5029824;28;20253;-74
2023/04/28 04:45:43;;;;;;;7.43;5.80;;;;;;;;;;5030354;28;20216;-74
2023/04/28 04:48:10;;;;;;;8.37;6.30;;;;;;;;;;5030100;28;20178;-74
2023/04/28 04:50:36;;;;;;;7.47;6.77;;;;;;;;;;5013721;28;20190;-74
2023/04/28 04:53:03;;;;;;;11.33;7.83;;;;;;;;;;5029746;28;20193;-74
2023/04/28 04:55:30;;;;;;;9.93;7.83;;;;;;;;;;5020984;28;20210;-74
2023/04/28 04:57:56;;;;;;;10.10;8.37;;;;;;;;;;5020243;28;20209;-74
2023/04/28 05:00:28;;;;;;;10.70;7.90;;;;;;;;;;5031284;28;20185;-74
2023/04/28 05:02:55;;;;;;;8.77;7.70;;;;;;;;;;5018376;28;20653;-74
2023/04/28 05:05:22;;;;;;;9.40;7.50;;;;;;;;;;5029827;28;20179;-74
2023/04/28 05:07:59;;;;;;;7.60;6.80;;;;;;;;;;5020596;28;20190;-74
2023/04/28 05:10:26;;;;;;;10.27;7.30;;;;;;;;;;5039576;28;20186;-74
2023/04/28 05:12:53;;;;;;;11.00;8.07;;;;;;;;;;5028806;28;20194;-74
2023/04/28 05:15:20;;;;;;;9.80;7.40;;;;;;;;;;5027752;28;20190;-74
2023/04/28 05:18:09;;;;;;;9.47;7.60;;;;;;;;;;5011003;28;20225;-74
2023/04/28 05:20:35;;;;;;;11.83;7.97;;;;;;;;;;5018996;28;20182;-74
2023/04/28 05:23:01;;;;;;;11.00;8.10;;;;;;;;;;5015469;28;20182;-74
2023/04/28 05:25:28;;;;;;;11.17;8.80;;;;;;;;;;5029442;28;20360;-74
2023/04/28 05:27:55;;;;;;;8.63;7.23;;;;;;;;;;5029716;28;20292;-74
2023/04/28 05:30:21;;;;;;;10.13;7.87;;;;;;;;;;5029993;28;20294;-74
2023/04/28 05:32:48;;;;;;;9.57;8.43;;;;;;;;;;5029613;28;20175;-73
2023/04/28 05:35:14;;;;;;;8.43;7.33;;;;;;;;;;5029548;28;20198;-74
2023/04/28 05:37:42;;;;;;;10.60;7.57;;;;;;;;;;5028823;28;20246;-74
2023/04/28 05:40:09;;;;;;;8.13;7.33;;;;;;;;;;5007791;28;20264;-74
2023/04/28 05:42:35;;;;;;;8.67;7.00;;;;;;;;;;5022873;28;20193;-74
2023/04/28 05:45:02;;;;;;;10.33;6.90;;;;;;;;;;5030002;28;20266;-74
2023/04/28 05:47:29;;;;;;;8.37;7.37;;;;;;;;;;5030067;28;20198;-74
2023/04/28 05:49:55;;;;;;;9.07;6.40;;;;;;;;;;5029674;28;20229;-74
2023/04/28 05:52:21;;;;;;;8.10;6.83;;;;;;;;;;5027527;28;20189;-74
2023/04/28 05:54:47;;;;;;;8.00;6.33;;;;;;;;;;5030941;28;20191;-74
2023/04/28 05:57:14;;;;;;;6.97;6.27;;;;;;;;;;5045711;28;20205;-74
2023/04/28 05:59:40;;;;;;;8.80;6.90;;;;;;;;;;5044194;28;20282;-75
2023/04/28 06:02:07;;;;;;;10.13;8.47;;;;;;;;;;5024062;28;20179;-75
2023/04/28 06:04:33;;;;;;;8.77;7.87;;;;;;;;;;5022039;28;20183;-74
2023/04/28 06:06:59;;;;;;;9.03;7.27;;;;;;;;;;5015516;28;20210;-74
2023/04/28 06:09:26;;;;;;;7.83;6.33;;;;;;;;;;5032959;28;20181;-74
2023/04/28 06:11:52;;;;;;;8.23;6.30;;;;;;;;;;5020608;28;20278;-75
2023/04/28 06:14:19;;;;;;;7.10;5.80;;;;;;;;;;5022974;28;20191;-74
2023/04/28 06:16:45;;;;;;;7.43;4.97;;;;;;;;;;5023114;28;20284;-76
2023/04/28 06:19:13;;;;;;;7.63;5.60;;;;;;;;;;5020225;28;20175;-75
2023/04/28 06:21:40;;;;;;;6.23;5.50;;;;;;;;;;5021959;28;20186;-74
2023/04/28 06:24:06;;;;;;;6.40;5.77;;;;;;;;;;5028636;28;20265;-74
2023/04/28 06:26:32;;;;;;;7.57;5.80;;;;;;;;;;5032745;28;20194;-74
2023/04/28 06:29:00;;;;;;;8.93;6.60;;;;;;;;;;5015722;28;20235;-74
2023/04/28 06:31:26;;;;;;;7.27;6.53;;;;;;;;;;5031435;28;20178;-74
2023/04/28 06:33:53;;;;;;;9.13;7.77;;;;;;;;;;5050300;28;20580;-74
2023/04/28 06:36:22;;;;;;;7.80;7.00;;;;;;;;;;5037412;28;20203;-74
2023/04/28 06:38:48;;;;;;;11.07;7.40;;;;;;;;;;5018158;28;20203;-74
2023/04/28 06:41:15;;;;;;;8.43;7.40;;;;;;;;;;5030433;28;20692;-74
2023/04/28 06:43:44;;;;;;;8.87;7.20;;;;;;;;;;5009386;28;20198;-74
2023/04/28 06:46:14;;;;;;;7.87;7.07;;;;;;;;;;5047874;28;20440;-74
2023/04/28 06:48:42;;;;;;;9.93;7.93;;;;;;;;;;5031435;28;20179;-74
2023/04/28 06:51:08;;;;;;;10.83;8.87;;;;;;;;;;5030773;28;20191;-74
2023/04/28 06:53:35;;;;;;;9.20;8.23;;;;;;;;;;5032432;28;20182;-74
2023/04/28 06:56:01;;;;;;;8.83;7.93;;;;;;;;;;5032352;28;20217;-74
2023/04/28 06:58:28;;;;;;;9.70;8.63;;;;;;;;;;5022159;28;20584;-74
2023/04/28 07:00:54;;;;;;;11.20;8.97;;;;;;;;;;5032544;28;20182;-74
2023/04/28 07:03:20;;;;;;;9.67;8.77;;;;;;;;;;5032631;28;20159;-74
2023/04/28 07:05:47;;;;;;;13.23;9.57;;;;;;;;;;5033729;28;20205;-74
2023/04/28 07:08:13;;;;;;;11.07;9.70;;;;;;;;;;5033254;28;20262;-74
2023/04/28 07:10:39;;;;;;;9.73;8.30;;;;;;;;;;5033619;28;20627;-74
2023/04/28 07:13:05;;;;;;;11.83;9.27;;;;;;;;;;5033200;28;20182;-74
2023/04/28 07:15:31;;;;;;;9.07;7.67;;;;;;;;;;5031843;28;20750;-74
2023/04/28 07:17:57;;;;;;;10.43;9.00;;;;;;;;;;5034316;28;20203;-74
2023/04/28 07:20:24;;;;;;;11.30;9.53;;;;;;;;;;5032898;28;20232;-73
2023/04/28 07:22:50;;;;;;;12.10;9.53;;;;;;;;;;5032751;28;20273;-73
2023/04/28 07:25:16;;;;;;;13.33;9.90;;;;;;;;;;5032133;28;20187;-76
2023/04/28 07:27:42;;;;;;;12.10;9.93;;;;;;;;;;5031879;28;20210;-76
2023/04/28 07:30:08;;;;;;;12.80;9.90;;;;;;;;;;5025481;28;20214;-76
2023/04/28 07:32:34;;;;;;;19.43;17.33;;;;;;;;;;5031358;28;20643;-77
2023/04/28 07:35:01;;;;;;;14.50;11.07;;;;;;;;;;5035504;28;20186;-75
2023/04/28 07:37:28;;;;;;;11.90;9.43;;;;;;;;;;5032385;28;20496;-74
2023/04/28 07:39:55;;;;;;;11.33;9.73;;;;;;;;;;5033472;28;20170;-75
2023/04/28 07:42:22;;;;;;;9.33;8.07;;;;;;;;;;5031137;28;20206;-75
2023/04/28 07:44:48;;;;;;;9.97;8.97;;;;;;;;;;5029946;28;20183;-74
2023/04/28 07:47:14;;;;;;;10.03;9.03;;;;;;;;;;5031131;28;20828;-74
2023/04/28 07:49:40;;;;;;;9.33;7.80;;;;;;;;;;5031312;28;20221;-74
2023/04/28 07:52:06;;;;;;;9.60;8.13;;;;;;;;;;5031317;28;20198;-74
2023/04/28 07:54:32;;;;;;;10.77;8.57;;;;;;;;;;5036093;28;20231;-74
2023/04/28 07:56:58;;;;;;;9.30;8.40;;;;;;;;;;5029458;28;20222;-74
2023/04/28 07:59:24;;;;;;;10.83;8.53;;;;;;;;;;5028613;28;20175;-74
2023/04/28 08:01:51;;;;;;;9.40;8.13;;;;;;;;;;5028861;28;20178;-74
2023/04/28 08:04:17;;;;;;;9.63;8.67;;;;;;;;;;5028694;28;20279;-72
2023/04/28 08:06:43;;;;;;;10.43;8.43;;;;;;;;;;5027172;28;20202;-72
2023/04/28 08:09:09;;;;;;;9.50;8.50;;;;;;;;;;5028501;28;20178;-73
2023/04/28 08:11:35;;;;;;;9.10;8.20;;;;;;;;;;5028066;28;20186;-73
2023/04/28 08:14:02;;;;;;;8.37;7.57;;;;;;;;;;5028972;28;20545;-73
2023/04/28 08:16:28;;;;;;;12.33;9.17;;;;;;;;;;5027471;28;20677;-73
2023/04/28 08:18:55;;;;;;;8.90;8.00;;;;;;;;;;5030418;28;20193;-73
2023/04/28 08:21:21;;;;;;;8.53;7.60;;;;;;;;;;5031154;28;20187;-72
2023/04/28 08:23:47;;;;;;;8.33;7.60;;;;;;;;;;5030678;28;20274;-72
2023/04/28 08:26:13;;;;;;;9.63;8.63;;;;;;;;;;5028749;28;20225;-73
2023/04/28 08:28:40;;;;;;;8.77;7.20;;;;;;;;;;5025048;28;20174;-72
2023/04/28 08:31:06;;;;;;;8.87;7.93;;;;;;;;;;5026051;28;20187;-73
2023/04/28 08:33:32;;;;;;;9.23;8.13;;;;;;;;;;5030085;28;20717;-72
2023/04/28 08:35:58;;;;;;;8.70;7.90;;;;;;;;;;5028253;28;20225;-73
2023/04/28 08:38:24;;;;;;;8.33;7.47;;;;;;;;;;5029671;28;20213;-72
2023/04/28 08:40:50;;;;;;;7.60;6.90;;;;;;;;;;5026616;28;20179;-73
2023/04/28 08:43:17;;;;;;;9.33;7.67;;;;;;;;;;5024692;28;20186;-73
2023/04/28 08:45:44;;;;;;;8.23;7.43;;;;;;;;;;5026740;28;20214;-74
2023/04/28 08:48:20;;;;;;;8.47;7.67;;;;;;;;;;5023759;28;20288;-73
2023/04/28 08:50:55;;;;;;;9.30;7.50;;;;;;;;;;5023190;28;20190;-74
2023/04/28 08:53:24;;;;;;;8.23;7.43;;;;;;;;;;5025991;28;20680;-74
2023/04/28 08:55:51;;;;;;;7.97;7.17;;;;;;;;;;5026972;28;20222;-74
2023/04/28 08:58:19;;;;;;;8.20;7.50;;;;;;;;;;5024543;28;20800;-74
2023/04/28 09:00:45;;;;;;;7.57;6.87;;;;;;;;;;5026484;28;20465;-73
2023/04/28 09:03:12;;;;;;;8.20;7.40;;;;;;;;;;5029173;28;20233;-73
2023/04/28 09:05:38;;;;;;;7.90;7.20;;;;;;;;;;5026767;28;20215;-73
2023/04/28 09:08:05;;;;;;;7.70;7.00;;;;;;;;;;5027901;28;20198;-73
2023/04/28 09:10:31;;;;;;;7.10;6.50;;;;;;;;;;5025478;28;20182;-74
2023/04/28 09:12:57;;;;;;;7.40;6.70;;;;;;;;;;5023536;28;20191;-70
2023/04/28 09:15:27;;;;;;;7.43;6.73;;;;;;;;;;5024579;28;20601;-72
2023/04/28 09:17:53;;;;;;;7.37;6.67;;;;;;;;;;5024090;28;20245;-71
2023/04/28 09:20:24;;;;;;;7.50;6.83;;;;;;;;;;5024419;28;20183;-70
2023/04/28 09:22:50;;;;;;;7.03;6.33;;;;;;;;;;5025002;28;20198;-70
2023/04/28 09:25:17;;;;;;;6.80;6.20;;;;;;;;;;5024093;28;20256;-70
2023/04/28 09:27:43;;;;;;;6.43;5.83;;;;;;;;;;5027020;28;20190;-73
2023/04/28 09:30:10;;;;;;;7.90;7.20;;;;;;;;;;5025847;28;20194;-73
2023/04/28 09:32:36;;;;;;;7.40;6.60;;;;;;;;;;5022786;28;20187;-73
2023/04/28 09:35:06;;;;;;;7.03;6.43;;;;;;;;;;5024377;28;20187;-73
2023/04/28 09:37:33;;;;;;;7.40;6.80;;;;;;;;;;5023724;28;20228;-72
2023/04/28 09:40:04;;;;;;;8.00;7.20;;;;;;;;;;5027644;28;20206;-76
2023/04/28 09:42:34;;;;;;;8.23;7.37;;;;;;;;;;5029272;28;20240;-74
2023/04/28 09:45:03;;;;;;;7.23;6.63;;;;;;;;;;5031166;28;20187;-73
2023/04/28 09:47:33;;;;;;;7.43;6.73;;;;;;;;;;5014190;28;20217;-71
2023/04/28 09:50:00;;;;;;;7.60;6.90;;;;;;;;;;5031068;28;20618;-70
2023/04/28 09:52:27;;;;;;;7.10;6.40;;;;;;;;;;5032435;28;20218;-71
2023/04/28 09:54:54;;;;;;;6.43;5.57;;;;;;;;;;5032322;28;20280;-71
2023/04/28 09:57:21;;;;;;;7.13;6.53;;;;;;;;;;5031641;28;20202;-71
2023/04/28 09:59:48;;;;;;;6.70;6.03;;;;;;;;;;5026851;28;20183;-70
2023/04/28 10:02:17;;;;;;;6.80;6.20;;;;;;;;;;5030688;28;20627;-70
2023/04/28 10:04:44;;;;;;;7.60;6.90;;;;;;;;;;5030689;28;20186;-70
2023/04/28 10:07:15;;;;;;;8.00;7.13;;;;;;;;;;5026372;28;20629;-71
2023/04/28 10:09:43;;;;;;;7.83;7.03;;;;;;;;;;5025727;28;20218;-70
2023/04/28 10:12:12;;;;;;;7.77;6.90;;;;;;;;;;5029203;28;20324;-71
2023/04/28 10:14:40;;;;;;;9.53;8.53;;;;;;;;;;5025471;28;20622;-71
2023/04/28 10:17:06;;;;;;;7.77;7.07;;;;;;;;;;5021369;28;20650;-70
2023/04/28 10:19:32;;;;;;;7.70;6.83;;;;;;;;;;5028665;28;20183;-70
2023/04/28 10:22:15;;;;;;;6.90;6.30;;;;;;;;;;5027337;28;20232;-71
2023/04/28 10:24:52;;;;;;;7.30;6.60;;;;;;;;;;5027244;28;20185;-71
2023/04/28 10:27:18;;;;;;;8.13;7.43;;;;;;;;;;5030321;28;20301;-71
2023/04/28 10:29:45;;;;;;;8.70;7.90;;;;;;;;;;5026973;28;20202;-71
2023/04/28 10:32:16;;;;;;;8.40;7.60;;;;;;;;;;5026140;28;20199;-71
2023/04/28 10:34:42;;;;;;;10.20;9.10;;;;;;;;;;5027383;28;20202;-71
2023/04/28 10:37:08;;;;;;;10.00;8.23;;;;;;;;;;5030297;28;20207;-71
2023/04/28 10:39:35;;;;;;;9.70;8.70;;;;;;;;;;5027067;28;20210;-70
2023/04/28 10:42:01;;;;;;;8.60;7.80;;;;;;;;;;5024589;28;20659;-71
2023/04/28 10:44:30;;;;;;;9.03;8.20;;;;;;;;;;5026819;28;20213;-71
2023/04/28 10:47:01;;;;;;;10.00;8.70;;;;;;;;;;5030514;28;20579;-71
2023/04/28 10:49:50;;;;;;;9.73;8.67;;;;;;;;;;5012258;28;20188;-71
2023/04/28 10:52:37;;;;;;;11.73;9.73;;;;;;;;;;5019520;28;20195;-71
2023/04/28 10:55:22;;;;;;;10.37;9.37;;;;;;;;;;5021945;28;20233;-71
2023/04/28 10:58:08;;;;;;;10.20;9.10;;;;;;;;;;5027958;28;20297;-71
2023/04/28 11:00:34;;;;;;;10.07;9.10;;;;;;;;;;5028669;28;20749;-71
2023/04/28 11:03:00;;;;;;;9.53;8.63;;;;;;;;;;5023857;28;20274;-74
2023/04/28 11:05:27;;;;;;;10.27;9.30;;;;;;;;;;5027136;28;20662;-71
2023/04/28 11:08:32;;;;;;;9.70;8.90;;;;;;;;;;5028856;28;20679;-71
2023/04/28 11:11:14;;;;;;;8.90;8.10;;;;;;;;;;5015208;28;20190;-71
2023/04/28 11:13:40;;;;;;;9.70;8.80;;;;;;;;;;4998872;28;20209;-72
2023/04/28 11:16:07;;;;;;;9.43;8.53;;;;;;;;;;5024788;28;20286;-72
2023/04/28 11:18:51;;;;;;;8.73;8.00;;;;;;;;;;5029552;28;20232;-72
2023/04/28 11:21:21;;;;;;;8.83;7.93;;;;;;;;;;5029358;28;20257;-72
2023/04/28 11:23:47;;;;;;;9.27;8.47;;;;;;;;;;5028388;28;20670;-72
2023/04/28 11:26:14;;;;;;;9.93;9.03;;;;;;;;;;5029731;28;20206;-72
2023/04/28 11:28:47;;;;;;;11.97;10.87;;;;;;;;;;5029311;28;20766;-71
2023/04/28 11:31:17;;;;;;;9.67;8.87;;;;;;;;;;5029234;28;20185;-71
2023/04/28 11:33:49;;;;;;;9.63;8.73;;;;;;;;;;5021845;28;20201;-71
2023/04/28 11:36:22;;;;;;;10.10;9.10;;;;;;;;;;5024123;28;20213;-71
2023/04/28 11:38:48;;;;;;;9.90;8.90;;;;;;;;;;5029307;28;20253;-71
2023/04/28 11:41:14;;;;;;;9.70;8.40;;;;;;;;;;5031332;28;20202;-71
2023/04/28 11:43:40;;;;;;;10.40;9.20;;;;;;;;;;5030721;28;20182;-71
2023/04/28 11:46:07;;;;;;;15.50;13.97;;;;;;;;;;5027224;28;20670;-71
2023/04/28 11:48:33;;;;;;;11.60;10.47;;;;;;;;;;5030569;28;20218;-71
2023/04/28 11:50:59;;;;;;;11.97;10.63;;;;;;;;;;5023923;28;20191;-71
2023/04/28 11:53:42;;;;;;;11.20;10.10;;;;;;;;;;5029265;28;20532;-71
2023/04/28 11:56:08;;;;;;;12.07;10.87;;;;;;;;;;5028476;28;20242;-71
2023/04/28 11:58:34;;;;;;;10.90;9.67;;;;;;;;;;5030915;28;20686;-71
2023/04/28 12:01:11;;;;;;;10.03;9.13;;;;;;;;;;5030780;28;20186;-71
2023/04/28 12:03:47;;;;;;;10.03;9.13;;;;;;;;;;5024572;28;20190;-71
2023/04/28 12:06:19;;;;;;;9.23;8.03;;;;;;;;;;5021568;28;20278;-71
2023/04/28 12:08:45;;;;;;;8.77;8.03;;;;;;;;;;5027612;28;20559;-71
2023/04/28 12:11:12;;;;;;;10.93;9.83;;;;;;;;;;5028411;28;20197;-71
2023/04/28 12:13:39;;;;;;;8.77;7.97;;;;;;;;;;5024815;28;20190;-71
2023/04/28 12:16:06;;;;;;;8.87;8.07;;;;;;;;;;5021035;28;20565;-71
2023/04/28 12:18:33;;;;;;;9.10;8.20;;;;;;;;;;5025430;28;20245;-72
2023/04/28 12:20:59;;;;;;;9.57;8.73;;;;;;;;;;5023921;28;20194;-72
2023/04/28 12:23:32;;;;;;;8.77;8.03;;;;;;;;;;5029234;28;20195;-73
2023/04/28 12:25:58;;;;;;;8.37;7.43;;;;;;;;;;5028294;28;20212;-72
2023/04/28 12:28:39;;;;;;;8.67;7.87;;;;;;;;;;5028019;28;20668;-72
2023/04/28 12:31:07;;;;;;;8.67;7.87;;;;;;;;;;5026168;28;20218;-72
2023/04/28 12:33:36;;;;;;;9.10;8.30;;;;;;;;;;5027722;28;20194;-72
2023/04/28 12:36:06;;;;;;;9.00;8.20;;;;;;;;;;5024285;28;20664;-72
2023/04/28 12:38:32;;;;;;;9.20;8.33;;;;;;;;;;5027828;28;20225;-72
2023/04/28 12:40:59;;;;;;;8.37;7.67;;;;;;;;;;5026721;28;20198;-72
2023/04/28 12:43:27;;;;;;;8.43;7.63;;;;;;;;;;5029278;28;20733;-72
2023/04/28 12:45:55;;;;;;;8.60;7.67;;;;;;;;;;5028039;28;20256;-72
2023/04/28 12:48:26;;;;;;;8.17;7.47;;;;;;;;;;5030060;28;20244;-72
2023/04/28 12:50:52;;;;;;;8.90;8.00;;;;;;;;;;5025617;28;20225;-72
2023/04/28 12:53:18;;;;;;;8.50;7.63;;;;;;;;;;5026620;28;20191;-72
2023/04/28 12:55:44;;;;;;;16.90;8.27;;;;;;;;;;5027391;28;20214;-72
2023/04/28 12:58:11;;;;;;;11.87;7.97;;;;;;;;;;5027899;28;20221;-71
2023/04/28 13:00:38;;;;;;;11.57;8.20;;;;;;;;;;5029881;28;20183;-71
2023/04/28 13:03:04;;;;;;;19.17;9.93;;;;;;;;;;5027893;28;20606;-71
2023/04/28 13:05:31;;;;;;;16.77;14.97;;;;;;;;;;5028646;28;20194;-71
2023/04/28 13:07:58;;;;;;;8.70;7.90;;;;;;;;;;5025702;28;20186;-71
2023/04/28 13:10:25;;;;;;;8.73;7.83;;;;;;;;;;5025469;28;20178;-72
2023/04/28 13:12:51;;;;;;;8.07;7.07;;;;;;;;;;5023172;28;20682;-72
2023/04/28 13:15:18;;;;;;;6.60;6.00;;;;;;;;;;5025960;28;20203;-72
2023/04/28 13:17:45;;;;;;;4.87;4.37;;;;;;;;;;5025997;28;20217;-72
2023/04/28 13:20:11;;;;;;;5.20;4.17;;;;;;;;;;5029277;28;20185;-72
2023/04/28 13:22:37;;;;;;;7.43;5.03;;;;;;;;;;5025294;28;20206;-72
2023/04/28 13:25:03;;;;;;;6.13;4.37;;;;;;;;;;5028569;28;20213;-72
2023/04/28 13:27:32;;;;;;;6.57;4.43;;;;;;;;;;5028522;28;20286;-72
2023/04/28 13:29:58;;;;;;;29.57;22.30;;;;;;;;;;5028362;28;20741;-72
2023/04/28 13:32:24;;;;;;;18.00;15.00;;;;;;;;;;5026372;28;20265;-72
2023/04/28 13:34:50;;;;;;;19.20;14.17;;;;;;;;;;5026577;28;20197;-72
2023/04/28 13:37:16;;;;;;;78.93;56.07;;;;;;;;;;5025813;28;20220;-72
2023/04/28 13:39:42;;;;;;;20.93;16.40;;;;;;;;;;5024709;28;20175;-72
2023/04/28 13:42:08;;;;;;;17.87;10.80;;;;;;;;;;5024183;28;20676;-72
2023/04/28 13:44:35;;;;;;;11.07;6.90;;;;;;;;;;5026599;28;20182;-72
2023/04/28 13:47:03;;;;;;;13.83;12.03;;;;;;;;;;5029081;28;20202;-72
2023/04/28 13:49:30;;;;;;;25.83;21.93;;;;;;;;;;5026759;28;20576;-72
2023/04/28 13:51:56;;;;;;;14.73;13.13;;;;;;;;;;5029242;28;20182;-72
2023/04/28 13:54:22;;;;;;;9.27;6.90;;;;;;;;;;5027187;28;20186;-72
2023/04/28 13:56:48;;;;;;;7.97;6.23;;;;;;;;;;5024493;28;20206;-73
2023/04/28 13:59:14;;;;;;;6.77;4.90;;;;;;;;;;5023461;28;20183;-72
2023/04/28 14:01:40;;;;;;;8.80;6.33;;;;;;;;;;5022597;28;20241;-72
2023/04/28 14:04:07;;;;;;;13.13;11.83;;;;;;;;;;5022788;28;20285;-72
2023/04/28 14:06:33;;;;;;;10.67;9.60;;;;;;;;;;5029194;28;20206;-72
2023/04/28 14:09:00;;;;;;;7.13;6.43;;;;;;;;;;5024032;28;20566;-72
2023/04/28 14:11:26;;;;;;;4.10;3.70;;;;;;;;;;5024237;28;20556;-72
2023/04/28 14:13:52;;;;;;;6.20;4.53;;;;;;;;;;5026909;28;20670;-71
2023/04/28 14:16:18;;;;;;;5.90;4.60;;;;;;;;;;5026423;28;20678;-71
2023/04/28 14:18:44;;;;;;;6.90;5.20;;;;;;;;;;5020880;28;20198;-71
2023/04/28 14:21:10;;;;;;;9.07;5.43;;;;;;;;;;5027465;28;20175;-71
2023/04/28 14:23:38;;;;;;;6.20;4.33;;;;;;;;;;5025799;28;20336;-72
2023/04/28 14:26:04;;;;;;;4.47;4.07;;;;;;;;;;5025848;28;20681;-72
2023/04/28 14:28:30;;;;;;;3.57;2.77;;;;;;;;;;5026060;28;20257;-72
2023/04/28 14:30:56;;;;;;;4.40;3.63;;;;;;;;;;5028279;28;20667;-71
2023/04/28 14:33:23;;;;;;;6.70;5.43;;;;;;;;;;5046370;28;20182;-71
2023/04/28 14:35:49;;;;;;;7.30;6.57;;;;;;;;;;5030198;28;20240;-71
2023/04/28 14:38:15;;;;;;;5.20;3.97;;;;;;;;;;5030386;28;20206;-71
2023/04/28 14:40:41;;;;;;;4.50;3.63;;;;;;;;;;5029529;28;20179;-71
2023/04/28 14:43:08;;;;;;;4.20;3.10;;;;;;;;;;5029393;28;20273;-71